sensor_id;sensor_type;location;lat;lon;timestamp;temperature;humidity
20337;DHT22;10326;53.660;10.200;2024-01-25T00:00:18;10.30;91.70
20337;DHT22;10326;53.660;10.200;2024-01-25T00:02:45;10.30;91.80
20337;DHT22;10326;53.660;10.200;2024-01-25T00:05:12;10.30;91.80
20337;DHT22;10326;53.660;10.200;2024-01-25T00:07:48;10.30;91.90
20337;DHT22;10326;53.660;10.200;2024-01-25T00:10:16;10.30;92.10
20337;DHT22;10326;53.660;10.200;2024-01-25T00:12:44;10.20;92.00
20337;DHT22;10326;53.660;10.200;2024-01-25T00:15:11;10.20;92.00
20337;DHT22;10326;53.660;10.200;2024-01-25T00:17:38;10.20;92.10
20337;DHT22;10326;53.660;10.200;2024-01-25T00:20:06;10.10;92.10
20337;DHT22;10326;53.660;10.200;2024-01-25T00:22:36;10.10;92.20
20337;DHT22;10326;53.660;10.200;2024-01-25T00:25:05;10.10;92.20
20337;DHT22;10326;53.660;10.200;2024-01-25T00:27:33;10.10;92.20
20337;DHT22;10326;53.660;10.200;2024-01-25T00:30:00;10.10;92.20
20337;DHT22;10326;53.660;10.200;2024-01-25T00:32:27;10.10;92.20
20337;DHT22;10326;53.660;10.200;2024-01-25T00:34:54;10.20;92.20
20337;DHT22;10326;53.660;10.200;2024-01-25T00:37:22;10.10;92.30
20337;DHT22;10326;53.660;10.200;2024-01-25T00:39:50;10.10;92.40
20337;DHT22;10326;53.660;10.200;2024-01-25T00:42:22;10.10;92.40
20337;DHT22;10326;53.660;10.200;2024-01-25T00:44:50;10.10;92.50
20337;DHT22;10326;53.660;10.200;2024-01-25T00:47:18;10.10;92.40
20337;DHT22;10326;53.660;10.200;2024-01-25T00:49:46;10.10;92.50
20337;DHT22;10326;53.660;10.200;2024-01-25T00:52:14;10.10;92.50
20337;DHT22;10326;53.660;10.200;2024-01-25T00:54:42;10.10;92.50
20337;DHT22;10326;53.660;10.200;2024-01-25T00:57:10;10.10;92.50
20337;DHT22;10326;53.660;10.200;2024-01-25T00:59:40;10.10;92.50
20337;DHT22;10326;53.660;10.200;2024-01-25T01:02:11;10.10;92.50
20337;DHT22;10326;53.660;10.200;2024-01-25T01:04:39;10.10;92.50
20337;DHT22;10326;53.660;10.200;2024-01-25T01:07:07;10.10;92.50
20337;DHT22;10326;53.660;10.200;2024-01-25T01:09:35;10.10;92.50
20337;DHT22;10326;53.660;10.200;2024-01-25T01:12:02;10.10;92.50
20337;DHT22;10326;53.660;10.200;2024-01-25T01:14:29;10.10;92.50
20337;DHT22;10326;53.660;10.200;2024-01-25T01:16:58;10.10;92.40
20337;DHT22;10326;53.660;10.200;2024-01-25T01:19:25;10.10;92.60
20337;DHT22;10326;53.660;10.200;2024-01-25T01:21:52;10.10;92.40
20337;DHT22;10326;53.660;10.200;2024-01-25T01:24:18;10.10;92.50
20337;DHT22;10326;53.660;10.200;2024-01-25T01:26:45;10.10;92.50
20337;DHT22;10326;53.660;10.200;2024-01-25T01:29:14;10.20;92.40
20337;DHT22;10326;53.660;10.200;2024-01-25T01:31:41;10.10;92.50
20337;DHT22;10326;53.660;10.200;2024-01-25T01:34:09;10.10;92.50
20337;DHT22;10326;53.660;10.200;2024-01-25T01:36:38;10.10;92.50
20337;DHT22;10326;53.660;10.200;2024-01-25T01:39:05;10.10;92.60
20337;DHT22;10326;53.660;10.200;2024-01-25T01:41:32;10.10;92.60
20337;DHT22;10326;53.660;10.200;2024-01-25T01:43:59;10.10;92.60
20337;DHT22;10326;53.660;10.200;2024-01-25T01:46:33;10.10;92.60
20337;DHT22;10326;53.660;10.200;2024-01-25T01:49:02;10.10;92.60
20337;DHT22;10326;53.660;10.200;2024-01-25T01:51:32;10.00;92.50
20337;DHT22;10326;53.660;10.200;2024-01-25T01:54:02;10.10;92.60
20337;DHT22;10326;53.660;10.200;2024-01-25T01:56:29;10.10;92.60
20337;DHT22;10326;53.660;10.200;2024-01-25T01:58:57;10.10;92.60
20337;DHT22;10326;53.660;10.200;2024-01-25T02:01:25;10.10;92.60
20337;DHT22;10326;53.660;10.200;2024-01-25T02:03:52;10.10;92.60
20337;DHT22;10326;53.660;10.200;2024-01-25T02:06:19;10.00;92.60
20337;DHT22;10326;53.660;10.200;2024-01-25T02:08:48;10.00;92.60
20337;DHT22;10326;53.660;10.200;2024-01-25T02:11:16;10.10;92.60
20337;DHT22;10326;53.660;10.200;2024-01-25T02:13:43;10.10;92.70
20337;DHT22;10326;53.660;10.200;2024-01-25T02:16:10;10.00;92.70
20337;DHT22;10326;53.660;10.200;2024-01-25T02:18:40;10.00;92.70
20337;DHT22;10326;53.660;10.200;2024-01-25T02:21:08;10.00;92.70
20337;DHT22;10326;53.660;10.200;2024-01-25T02:23:36;10.00;92.70
20337;DHT22;10326;53.660;10.200;2024-01-25T02:26:03;10.00;92.60
20337;DHT22;10326;53.660;10.200;2024-01-25T02:28:30;10.00;92.70
20337;DHT22;10326;53.660;10.200;2024-01-25T02:30:58;10.00;92.70
20337;DHT22;10326;53.660;10.200;2024-01-25T02:33:26;10.00;92.80
20337;DHT22;10326;53.660;10.200;2024-01-25T02:35:53;10.00;92.70
20337;DHT22;10326;53.660;10.200;2024-01-25T02:38:20;10.00;92.80
20337;DHT22;10326;53.660;10.200;2024-01-25T02:40:48;10.00;92.70
20337;DHT22;10326;53.660;10.200;2024-01-25T02:43:15;10.00;92.70
20337;DHT22;10326;53.660;10.200;2024-01-25T02:45:42;10.00;92.80
20337;DHT22;10326;53.660;10.200;2024-01-25T02:48:09;10.00;92.90
20337;DHT22;10326;53.660;10.200;2024-01-25T02:50:36;10.00;92.90
20337;DHT22;10326;53.660;10.200;2024-01-25T02:53:03;10.00;92.80
20337;DHT22;10326;53.660;10.200;2024-01-25T02:55:31;9.90;92.90
20337;DHT22;10326;53.660;10.200;2024-01-25T02:57:59;9.90;92.70
20337;DHT22;10326;53.660;10.200;2024-01-25T03:00:26;10.00;92.80
20337;DHT22;10326;53.660;10.200;2024-01-25T03:02:53;9.90;92.80
20337;DHT22;10326;53.660;10.200;2024-01-25T03:05:20;9.90;92.80
20337;DHT22;10326;53.660;10.200;2024-01-25T03:07:47;9.90;92.80
20337;DHT22;10326;53.660;10.200;2024-01-25T03:10:14;9.90;92.90
20337;DHT22;10326;53.660;10.200;2024-01-25T03:12:41;9.90;92.90
20337;DHT22;10326;53.660;10.200;2024-01-25T03:15:10;9.90;93.00
20337;DHT22;10326;53.660;10.200;2024-01-25T03:17:37;9.90;93.00
20337;DHT22;10326;53.660;10.200;2024-01-25T03:20:06;9.80;93.00
20337;DHT22;10326;53.660;10.200;2024-01-25T03:22:33;9.80;93.00
20337;DHT22;10326;53.660;10.200;2024-01-25T03:25:00;9.80;93.00
20337;DHT22;10326;53.660;10.200;2024-01-25T03:27:27;9.80;93.00
20337;DHT22;10326;53.660;10.200;2024-01-25T03:29:54;9.80;92.90
20337;DHT22;10326;53.660;10.200;2024-01-25T03:32:22;9.90;92.90
20337;DHT22;10326;53.660;10.200;2024-01-25T03:34:49;9.90;93.00
20337;DHT22;10326;53.660;10.200;2024-01-25T03:37:16;9.90;92.90
20337;DHT22;10326;53.660;10.200;2024-01-25T03:39:43;9.90;92.90
20337;DHT22;10326;53.660;10.200;2024-01-25T03:42:09;9.90;92.80
20337;DHT22;10326;53.660;10.200;2024-01-25T03:44:36;9.90;92.80
20337;DHT22;10326;53.660;10.200;2024-01-25T03:47:03;9.90;92.80
20337;DHT22;10326;53.660;10.200;2024-01-25T03:49:31;9.90;92.80
20337;DHT22;10326;53.660;10.200;2024-01-25T03:51:58;9.90;92.90
20337;DHT22;10326;53.660;10.200;2024-01-25T03:54:25;9.80;92.80
20337;DHT22;10326;53.660;10.200;2024-01-25T03:56:52;9.90;92.90
20337;DHT22;10326;53.660;10.200;2024-01-25T03:59:19;9.80;92.90
20337;DHT22;10326;53.660;10.200;2024-01-25T04:01:46;9.80;93.20
20337;DHT22;10326;53.660;10.200;2024-01-25T04:04:13;9.80;93.00
20337;DHT22;10326;53.660;10.200;2024-01-25T04:06:43;9.80;93.00
20337;DHT22;10326;53.660;10.200;2024-01-25T04:09:11;9.80;93.00
20337;DHT22;10326;53.660;10.200;2024-01-25T04:11:38;9.80;93.00
20337;DHT22;10326;53.660;10.200;2024-01-25T04:14:06;9.80;93.00
20337;DHT22;10326;53.660;10.200;2024-01-25T04:16:33;9.80;93.00
20337;DHT22;10326;53.660;10.200;2024-01-25T04:19:00;9.80;93.00
20337;DHT22;10326;53.660;10.200;2024-01-25T04:21:27;9.80;93.00
20337;DHT22;10326;53.660;10.200;2024-01-25T04:23:55;9.80;93.00
20337;DHT22;10326;53.660;10.200;2024-01-25T04:26:22;9.80;93.00
20337;DHT22;10326;53.660;10.200;2024-01-25T04:28:49;9.80;93.00
20337;DHT22;10326;53.660;10.200;2024-01-25T04:31:16;9.80;93.00
20337;DHT22;10326;53.660;10.200;2024-01-25T04:33:45;9.80;93.00
20337;DHT22;10326;53.660;10.200;2024-01-25T04:36:11;9.80;93.10
20337;DHT22;10326;53.660;10.200;2024-01-25T04:38:38;9.80;93.10
20337;DHT22;10326;53.660;10.200;2024-01-25T04:41:07;9.80;93.10
20337;DHT22;10326;53.660;10.200;2024-01-25T04:43:34;9.80;93.10
20337;DHT22;10326;53.660;10.200;2024-01-25T04:46:02;9.80;93.00
20337;DHT22;10326;53.660;10.200;2024-01-25T04:48:29;9.80;93.10
20337;DHT22;10326;53.660;10.200;2024-01-25T04:50:57;9.80;93.10
20337;DHT22;10326;53.660;10.200;2024-01-25T04:53:24;9.80;93.10
20337;DHT22;10326;53.660;10.200;2024-01-25T04:55:52;9.80;93.00
20337;DHT22;10326;53.660;10.200;2024-01-25T04:58:21;9.80;93.20
20337;DHT22;10326;53.660;10.200;2024-01-25T05:00:48;9.70;93.10
20337;DHT22;10326;53.660;10.200;2024-01-25T05:03:16;9.70;93.20
20337;DHT22;10326;53.660;10.200;2024-01-25T05:05:43;9.70;93.20
20337;DHT22;10326;53.660;10.200;2024-01-25T05:08:10;9.70;93.20
20337;DHT22;10326;53.660;10.200;2024-01-25T05:10:37;9.70;93.20
20337;DHT22;10326;53.660;10.200;2024-01-25T05:13:04;9.70;93.00
20337;DHT22;10326;53.660;10.200;2024-01-25T05:15:32;9.70;93.20
20337;DHT22;10326;53.660;10.200;2024-01-25T05:17:59;9.70;93.20
20337;DHT22;10326;53.660;10.200;2024-01-25T05:20:26;9.80;93.20
20337;DHT22;10326;53.660;10.200;2024-01-25T05:22:57;9.70;93.10
20337;DHT22;10326;53.660;10.200;2024-01-25T05:25:24;9.70;93.20
20337;DHT22;10326;53.660;10.200;2024-01-25T05:27:53;9.70;93.20
20337;DHT22;10326;53.660;10.200;2024-01-25T05:30:20;9.70;93.20
20337;DHT22;10326;53.660;10.200;2024-01-25T05:32:48;9.70;93.20
20337;DHT22;10326;53.660;10.200;2024-01-25T05:35:16;9.70;93.20
20337;DHT22;10326;53.660;10.200;2024-01-25T05:37:43;9.70;93.30
20337;DHT22;10326;53.660;10.200;2024-01-25T05:40:11;9.70;93.20
20337;DHT22;10326;53.660;10.200;2024-01-25T05:42:38;9.70;93.20
20337;DHT22;10326;53.660;10.200;2024-01-25T05:45:06;9.70;93.30
20337;DHT22;10326;53.660;10.200;2024-01-25T05:47:34;9.70;93.30
20337;DHT22;10326;53.660;10.200;2024-01-25T05:50:03;9.70;93.20
20337;DHT22;10326;53.660;10.200;2024-01-25T05:52:31;9.70;93.30
20337;DHT22;10326;53.660;10.200;2024-01-25T05:54:58;9.70;93.30
20337;DHT22;10326;53.660;10.200;2024-01-25T05:57:25;9.70;93.20
20337;DHT22;10326;53.660;10.200;2024-01-25T05:59:53;9.70;93.30
20337;DHT22;10326;53.660;10.200;2024-01-25T06:02:20;9.70;93.30
20337;DHT22;10326;53.660;10.200;2024-01-25T06:04:47;9.70;93.30
20337;DHT22;10326;53.660;10.200;2024-01-25T06:07:15;9.70;93.30
20337;DHT22;10326;53.660;10.200;2024-01-25T06:09:42;9.70;93.20
20337;DHT22;10326;53.660;10.200;2024-01-25T06:12:09;9.70;93.20
20337;DHT22;10326;53.660;10.200;2024-01-25T06:14:36;9.70;93.20
20337;DHT22;10326;53.660;10.200;2024-01-25T06:17:03;9.70;93.20
20337;DHT22;10326;53.660;10.200;2024-01-25T06:19:30;9.70;93.10
20337;DHT22;10326;53.660;10.200;2024-01-25T06:21:58;9.70;93.10
20337;DHT22;10326;53.660;10.200;2024-01-25T06:24:26;9.70;93.20
20337;DHT22;10326;53.660;10.200;2024-01-25T06:26:53;9.70;93.20
20337;DHT22;10326;53.660;10.200;2024-01-25T06:29:20;9.70;93.20
20337;DHT22;10326;53.660;10.200;2024-01-25T06:31:47;9.70;93.10
20337;DHT22;10326;53.660;10.200;2024-01-25T06:34:14;9.70;93.20
20337;DHT22;10326;53.660;10.200;2024-01-25T06:36:42;9.70;93.10
20337;DHT22;10326;53.660;10.200;2024-01-25T06:39:08;9.70;93.10
20337;DHT22;10326;53.660;10.200;2024-01-25T06:41:37;9.70;93.10
20337;DHT22;10326;53.660;10.200;2024-01-25T06:44:04;9.70;93.10
20337;DHT22;10326;53.660;10.200;2024-01-25T06:46:31;9.70;93.20
20337;DHT22;10326;53.660;10.200;2024-01-25T06:48:58;9.60;93.20
20337;DHT22;10326;53.660;10.200;2024-01-25T06:51:25;9.60;93.10
20337;DHT22;10326;53.660;10.200;2024-01-25T06:53:52;9.60;93.30
20337;DHT22;10326;53.660;10.200;2024-01-25T06:56:19;9.60;93.20
20337;DHT22;10326;53.660;10.200;2024-01-25T06:58:48;9.60;93.30
20337;DHT22;10326;53.660;10.200;2024-01-25T07:01:20;9.60;93.20
20337;DHT22;10326;53.660;10.200;2024-01-25T07:03:48;9.60;93.30
20337;DHT22;10326;53.660;10.200;2024-01-25T07:06:16;9.60;93.20
20337;DHT22;10326;53.660;10.200;2024-01-25T07:08:43;9.70;93.30
20337;DHT22;10326;53.660;10.200;2024-01-25T07:11:10;9.70;93.30
20337;DHT22;10326;53.660;10.200;2024-01-25T07:13:38;9.70;93.30
20337;DHT22;10326;53.660;10.200;2024-01-25T07:16:06;9.70;93.30
20337;DHT22;10326;53.660;10.200;2024-01-25T07:18:33;9.70;93.30
20337;DHT22;10326;53.660;10.200;2024-01-25T07:21:00;9.70;93.30
20337;DHT22;10326;53.660;10.200;2024-01-25T07:23:29;9.70;93.30
20337;DHT22;10326;53.660;10.200;2024-01-25T07:25:56;9.70;93.30
20337;DHT22;10326;53.660;10.200;2024-01-25T07:28:23;9.70;93.20
20337;DHT22;10326;53.660;10.200;2024-01-25T07:30:50;9.70;93.30
20337;DHT22;10326;53.660;10.200;2024-01-25T07:33:19;9.60;93.20
20337;DHT22;10326;53.660;10.200;2024-01-25T07:35:46;9.60;93.30
20337;DHT22;10326;53.660;10.200;2024-01-25T07:38:13;9.60;93.30
20337;DHT22;10326;53.660;10.200;2024-01-25T07:40:41;9.60;93.30
20337;DHT22;10326;53.660;10.200;2024-01-25T07:43:08;9.60;93.40
20337;DHT22;10326;53.660;10.200;2024-01-25T07:45:35;9.60;93.40
20337;DHT22;10326;53.660;10.200;2024-01-25T07:48:02;9.50;93.50
20337;DHT22;10326;53.660;10.200;2024-01-25T07:50:30;9.50;93.40
20337;DHT22;10326;53.660;10.200;2024-01-25T07:52:57;9.50;93.30
20337;DHT22;10326;53.660;10.200;2024-01-25T07:55:26;9.50;93.40
20337;DHT22;10326;53.660;10.200;2024-01-25T07:57:55;9.50;93.40
20337;DHT22;10326;53.660;10.200;2024-01-25T08:00:22;9.40;93.40
20337;DHT22;10326;53.660;10.200;2024-01-25T08:02:50;9.40;93.40
20337;DHT22;10326;53.660;10.200;2024-01-25T08:05:17;9.40;93.50
20337;DHT22;10326;53.660;10.200;2024-01-25T08:07:46;9.40;93.50
20337;DHT22;10326;53.660;10.200;2024-01-25T08:10:14;9.40;93.50
20337;DHT22;10326;53.660;10.200;2024-01-25T08:12:41;9.40;93.50
20337;DHT22;10326;53.660;10.200;2024-01-25T08:15:09;9.50;93.60
20337;DHT22;10326;53.660;10.200;2024-01-25T08:17:37;9.40;93.60
20337;DHT22;10326;53.660;10.200;2024-01-25T08:20:06;9.40;93.70
20337;DHT22;10326;53.660;10.200;2024-01-25T08:22:34;9.40;93.90
20337;DHT22;10326;53.660;10.200;2024-01-25T08:25:02;9.40;93.70
20337;DHT22;10326;53.660;10.200;2024-01-25T08:27:30;9.40;93.70
20337;DHT22;10326;53.660;10.200;2024-01-25T08:29:57;9.40;93.70
20337;DHT22;10326;53.660;10.200;2024-01-25T08:32:25;9.50;93.60
20337;DHT22;10326;53.660;10.200;2024-01-25T08:34:52;9.40;93.60
20337;DHT22;10326;53.660;10.200;2024-01-25T08:37:19;9.40;93.70
20337;DHT22;10326;53.660;10.200;2024-01-25T08:39:46;9.40;93.70
20337;DHT22;10326;53.660;10.200;2024-01-25T08:42:18;9.50;93.80
20337;DHT22;10326;53.660;10.200;2024-01-25T08:44:46;9.40;93.70
20337;DHT22;10326;53.660;10.200;2024-01-25T08:47:15;9.40;93.90
20337;DHT22;10326;53.660;10.200;2024-01-25T08:49:43;9.40;94.00
20337;DHT22;10326;53.660;10.200;2024-01-25T08:52:10;9.40;93.90
20337;DHT22;10326;53.660;10.200;2024-01-25T08:54:37;9.50;93.80
20337;DHT22;10326;53.660;10.200;2024-01-25T08:57:04;9.50;93.90
20337;DHT22;10326;53.660;10.200;2024-01-25T08:59:34;9.50;93.80
20337;DHT22;10326;53.660;10.200;2024-01-25T09:02:03;9.50;94.00
20337;DHT22;10326;53.660;10.200;2024-01-25T09:04:32;9.60;94.00
20337;DHT22;10326;53.660;10.200;2024-01-25T09:07:00;9.60;93.80
20337;DHT22;10326;53.660;10.200;2024-01-25T09:09:27;9.60;93.80
20337;DHT22;10326;53.660;10.200;2024-01-25T09:11:54;9.60;93.80
20337;DHT22;10326;53.660;10.200;2024-01-25T09:14:21;9.60;93.80
20337;DHT22;10326;53.660;10.200;2024-01-25T09:16:52;9.70;93.90
20337;DHT22;10326;53.660;10.200;2024-01-25T09:19:20;9.70;93.90
20337;DHT22;10326;53.660;10.200;2024-01-25T09:21:47;9.70;93.80
20337;DHT22;10326;53.660;10.200;2024-01-25T09:24:14;9.70;93.90
20337;DHT22;10326;53.660;10.200;2024-01-25T09:26:41;9.70;93.90
20337;DHT22;10326;53.660;10.200;2024-01-25T09:29:08;9.70;93.70
20337;DHT22;10326;53.660;10.200;2024-01-25T09:31:36;9.80;93.90
20337;DHT22;10326;53.660;10.200;2024-01-25T09:34:04;9.80;93.80
20337;DHT22;10326;53.660;10.200;2024-01-25T09:36:32;9.80;93.70
20337;DHT22;10326;53.660;10.200;2024-01-25T09:38:59;9.80;93.80
20337;DHT22;10326;53.660;10.200;2024-01-25T09:41:26;9.80;93.70
20337;DHT22;10326;53.660;10.200;2024-01-25T09:43:53;9.80;93.80
20337;DHT22;10326;53.660;10.200;2024-01-25T09:46:20;9.90;93.80
20337;DHT22;10326;53.660;10.200;2024-01-25T09:48:48;9.90;93.90
20337;DHT22;10326;53.660;10.200;2024-01-25T09:51:17;9.90;93.90
20337;DHT22;10326;53.660;10.200;2024-01-25T09:53:45;9.90;93.80
20337;DHT22;10326;53.660;10.200;2024-01-25T09:56:20;9.90;93.80
20337;DHT22;10326;53.660;10.200;2024-01-25T09:58:52;9.90;93.80
20337;DHT22;10326;53.660;10.200;2024-01-25T10:01:19;9.90;93.70
20337;DHT22;10326;53.660;10.200;2024-01-25T10:03:46;9.90;93.70
20337;DHT22;10326;53.660;10.200;2024-01-25T10:06:14;9.90;93.70
20337;DHT22;10326;53.660;10.200;2024-01-25T10:08:43;10.00;93.90
20337;DHT22;10326;53.660;10.200;2024-01-25T10:11:11;9.90;93.80
20337;DHT22;10326;53.660;10.200;2024-01-25T10:13:41;10.00;93.80
20337;DHT22;10326;53.660;10.200;2024-01-25T10:16:11;9.90;93.90
20337;DHT22;10326;53.660;10.200;2024-01-25T10:18:40;10.00;93.90
20337;DHT22;10326;53.660;10.200;2024-01-25T10:21:09;9.90;93.80
20337;DHT22;10326;53.660;10.200;2024-01-25T10:23:38;9.90;93.90
20337;DHT22;10326;53.660;10.200;2024-01-25T10:26:05;9.90;93.80
20337;DHT22;10326;53.660;10.200;2024-01-25T10:28:34;10.00;93.90
20337;DHT22;10326;53.660;10.200;2024-01-25T10:31:02;9.90;93.80
20337;DHT22;10326;53.660;10.200;2024-01-25T10:33:31;9.90;93.90
20337;DHT22;10326;53.660;10.200;2024-01-25T10:36:00;10.00;94.00
20337;DHT22;10326;53.660;10.200;2024-01-25T10:38:30;10.00;93.90
20337;DHT22;10326;53.660;10.200;2024-01-25T10:41:07;10.00;94.20
20337;DHT22;10326;53.660;10.200;2024-01-25T10:43:36;10.00;94.00
20337;DHT22;10326;53.660;10.200;2024-01-25T10:46:04;10.00;93.90
20337;DHT22;10326;53.660;10.200;2024-01-25T10:48:32;10.00;93.90
20337;DHT22;10326;53.660;10.200;2024-01-25T10:50:59;10.00;93.70
20337;DHT22;10326;53.660;10.200;2024-01-25T10:53:30;10.10;94.00
20337;DHT22;10326;53.660;10.200;2024-01-25T10:56:01;10.10;94.00
20337;DHT22;10326;53.660;10.200;2024-01-25T10:58:30;10.10;94.00
20337;DHT22;10326;53.660;10.200;2024-01-25T11:00:58;10.10;93.90
20337;DHT22;10326;53.660;10.200;2024-01-25T11:03:26;10.10;94.00
20337;DHT22;10326;53.660;10.200;2024-01-25T11:05:55;10.20;94.00
20337;DHT22;10326;53.660;10.200;2024-01-25T11:08:39;10.20;94.00
20337;DHT22;10326;53.660;10.200;2024-01-25T11:11:10;10.20;94.00
20337;DHT22;10326;53.660;10.200;2024-01-25T11:13:39;10.20;94.00
20337;DHT22;10326;53.660;10.200;2024-01-25T11:16:14;10.20;93.90
20337;DHT22;10326;53.660;10.200;2024-01-25T11:18:50;10.20;93.80
20337;DHT22;10326;53.660;10.200;2024-01-25T11:21:27;10.20;93.90
20337;DHT22;10326;53.660;10.200;2024-01-25T11:24:02;10.20;93.90
20337;DHT22;10326;53.660;10.200;2024-01-25T11:26:32;10.20;93.90
20337;DHT22;10326;53.660;10.200;2024-01-25T11:29:00;10.20;93.70
20337;DHT22;10326;53.660;10.200;2024-01-25T11:31:28;10.30;93.80
20337;DHT22;10326;53.660;10.200;2024-01-25T11:33:59;10.20;93.90
20337;DHT22;10326;53.660;10.200;2024-01-25T11:36:26;10.20;93.80
20337;DHT22;10326;53.660;10.200;2024-01-25T11:38:54;10.20;93.80
20337;DHT22;10326;53.660;10.200;2024-01-25T11:41:22;10.30;93.80
20337;DHT22;10326;53.660;10.200;2024-01-25T11:43:52;10.20;93.80
20337;DHT22;10326;53.660;10.200;2024-01-25T11:46:19;10.20;93.80
20337;DHT22;10326;53.660;10.200;2024-01-25T11:48:46;10.30;93.80
20337;DHT22;10326;53.660;10.200;2024-01-25T11:51:13;10.30;93.70
20337;DHT22;10326;53.660;10.200;2024-01-25T11:53:40;10.30;93.80
20337;DHT22;10326;53.660;10.200;2024-01-25T11:56:10;10.30;93.70
20337;DHT22;10326;53.660;10.200;2024-01-25T11:58:39;10.30;93.90
20337;DHT22;10326;53.660;10.200;2024-01-25T12:01:08;10.30;93.90
20337;DHT22;10326;53.660;10.200;2024-01-25T12:03:40;10.40;93.90
20337;DHT22;10326;53.660;10.200;2024-01-25T12:06:07;10.30;93.80
20337;DHT22;10326;53.660;10.200;2024-01-25T12:08:35;10.40;93.70
20337;DHT22;10326;53.660;10.200;2024-01-25T12:11:05;10.40;93.90
20337;DHT22;10326;53.660;10.200;2024-01-25T12:13:38;10.40;94.20
20337;DHT22;10326;53.660;10.200;2024-01-25T12:16:07;10.50;94.00
20337;DHT22;10326;53.660;10.200;2024-01-25T12:18:35;10.50;93.90
20337;DHT22;10326;53.660;10.200;2024-01-25T12:21:04;10.50;93.80
20337;DHT22;10326;53.660;10.200;2024-01-25T12:23:32;10.60;93.80
20337;DHT22;10326;53.660;10.200;2024-01-25T12:26:00;10.60;93.70
20337;DHT22;10326;53.660;10.200;2024-01-25T12:28:29;10.60;93.60
20337;DHT22;10326;53.660;10.200;2024-01-25T12:30:57;10.60;93.50
20337;DHT22;10326;53.660;10.200;2024-01-25T12:33:26;10.60;93.50
20337;DHT22;10326;53.660;10.200;2024-01-25T12:35:53;10.60;93.40
20337;DHT22;10326;53.660;10.200;2024-01-25T12:38:20;10.60;93.50
20337;DHT22;10326;53.660;10.200;2024-01-25T12:40:48;10.60;93.40
20337;DHT22;10326;53.660;10.200;2024-01-25T12:43:16;10.60;93.40
20337;DHT22;10326;53.660;10.200;2024-01-25T12:45:43;10.60;93.40
20337;DHT22;10326;53.660;10.200;2024-01-25T12:48:11;10.60;93.10
20337;DHT22;10326;53.660;10.200;2024-01-25T12:50:39;10.60;93.20
20337;DHT22;10326;53.660;10.200;2024-01-25T12:53:07;10.50;93.10
20337;DHT22;10326;53.660;10.200;2024-01-25T12:55:34;10.50;93.10
20337;DHT22;10326;53.660;10.200;2024-01-25T12:58:01;10.50;93.10
20337;DHT22;10326;53.660;10.200;2024-01-25T13:00:28;10.50;93.10
20337;DHT22;10326;53.660;10.200;2024-01-25T13:02:55;10.50;93.10
20337;DHT22;10326;53.660;10.200;2024-01-25T13:05:23;10.40;93.10
20337;DHT22;10326;53.660;10.200;2024-01-25T13:07:51;10.40;93.10
20337;DHT22;10326;53.660;10.200;2024-01-25T13:10:18;10.40;93.10
20337;DHT22;10326;53.660;10.200;2024-01-25T13:12:45;10.30;93.10
20337;DHT22;10326;53.660;10.200;2024-01-25T13:15:12;10.30;93.20
20337;DHT22;10326;53.660;10.200;2024-01-25T13:17:40;10.30;93.20
20337;DHT22;10326;53.660;10.200;2024-01-25T13:20:07;10.20;93.20
20337;DHT22;10326;53.660;10.200;2024-01-25T13:22:35;10.20;93.20
20337;DHT22;10326;53.660;10.200;2024-01-25T13:25:04;10.20;93.20
20337;DHT22;10326;53.660;10.200;2024-01-25T13:27:31;10.20;93.40
20337;DHT22;10326;53.660;10.200;2024-01-25T13:29:58;10.10;93.30
20337;DHT22;10326;53.660;10.200;2024-01-25T13:32:25;10.10;93.20
20337;DHT22;10326;53.660;10.200;2024-01-25T13:34:52;10.10;93.30
20337;DHT22;10326;53.660;10.200;2024-01-25T13:37:19;10.10;93.30
20337;DHT22;10326;53.660;10.200;2024-01-25T13:39:46;10.10;93.40
20337;DHT22;10326;53.660;10.200;2024-01-25T13:42:15;10.10;93.40
20337;DHT22;10326;53.660;10.200;2024-01-25T13:44:42;10.10;93.40
20337;DHT22;10326;53.660;10.200;2024-01-25T13:47:10;10.10;93.40
20337;DHT22;10326;53.660;10.200;2024-01-25T13:49:37;10.10;93.50
20337;DHT22;10326;53.660;10.200;2024-01-25T13:52:05;10.10;93.50
20337;DHT22;10326;53.660;10.200;2024-01-25T13:54:32;10.10;93.60
20337;DHT22;10326;53.660;10.200;2024-01-25T13:56:59;10.20;93.50
20337;DHT22;10326;53.660;10.200;2024-01-25T13:59:28;10.20;93.60
20337;DHT22;10326;53.660;10.200;2024-01-25T14:01:55;10.20;93.50
20337;DHT22;10326;53.660;10.200;2024-01-25T14:04:22;10.30;93.50
20337;DHT22;10326;53.660;10.200;2024-01-25T14:06:49;10.30;93.50
20337;DHT22;10326;53.660;10.200;2024-01-25T14:09:16;10.30;93.50
20337;DHT22;10326;53.660;10.200;2024-01-25T14:11:43;10.30;93.60
20337;DHT22;10326;53.660;10.200;2024-01-25T14:14:10;10.30;93.60
20337;DHT22;10326;53.660;10.200;2024-01-25T14:16:38;10.30;93.60
20337;DHT22;10326;53.660;10.200;2024-01-25T14:19:05;10.30;93.50
20337;DHT22;10326;53.660;10.200;2024-01-25T14:21:32;10.30;93.50
20337;DHT22;10326;53.660;10.200;2024-01-25T14:23:59;10.30;93.50
20337;DHT22;10326;53.660;10.200;2024-01-25T14:26:26;10.30;93.40
20337;DHT22;10326;53.660;10.200;2024-01-25T14:28:53;10.30;93.40
20337;DHT22;10326;53.660;10.200;2024-01-25T14:31:20;10.30;93.50
20337;DHT22;10326;53.660;10.200;2024-01-25T14:33:48;10.20;93.50
20337;DHT22;10326;53.660;10.200;2024-01-25T14:36:16;10.30;93.50
20337;DHT22;10326;53.660;10.200;2024-01-25T14:38:43;10.20;93.60
20337;DHT22;10326;53.660;10.200;2024-01-25T14:41:10;10.30;93.60
20337;DHT22;10326;53.660;10.200;2024-01-25T14:43:37;10.20;93.70
20337;DHT22;10326;53.660;10.200;2024-01-25T14:46:05;10.20;93.70
20337;DHT22;10326;53.660;10.200;2024-01-25T14:48:33;10.30;93.70
20337;DHT22;10326;53.660;10.200;2024-01-25T14:51:02;10.30;93.60
20337;DHT22;10326;53.660;10.200;2024-01-25T14:53:29;10.30;93.60
20337;DHT22;10326;53.660;10.200;2024-01-25T14:55:56;10.30;93.60
20337;DHT22;10326;53.660;10.200;2024-01-25T14:58:23;10.30;93.70
20337;DHT22;10326;53.660;10.200;2024-01-25T15:00:51;10.30;93.60
20337;DHT22;10326;53.660;10.200;2024-01-25T15:03:19;10.30;93.60
20337;DHT22;10326;53.660;10.200;2024-01-25T15:05:46;10.30;93.60
20337;DHT22;10326;53.660;10.200;2024-01-25T15:08:14;10.30;93.60
20337;DHT22;10326;53.660;10.200;2024-01-25T15:10:41;10.30;93.50
20337;DHT22;10326;53.660;10.200;2024-01-25T15:13:08;10.30;93.50
20337;DHT22;10326;53.660;10.200;2024-01-25T15:15:35;10.30;93.60
20337;DHT22;10326;53.660;10.200;2024-01-25T15:18:02;10.30;93.60
20337;DHT22;10326;53.660;10.200;2024-01-25T15:20:30;10.40;93.70
20337;DHT22;10326;53.660;10.200;2024-01-25T15:23:01;10.40;93.70
20337;DHT22;10326;53.660;10.200;2024-01-25T15:25:29;10.40;93.70